sensor_id;sensor_type;location;lat;lon;timestamp;P1;durP1;ratioP1;P2;durP2;ratioP2
78783;SDS011;68127;51.050;14.084;2023-05-17T00:00:51;4.38;;;1.52;;
78783;SDS011;68127;51.050;14.084;2023-05-17T00:03:16;3.08;;;1.50;;
78783;SDS011;68127;51.050;14.084;2023-05-17T00:05:41;3.17;;;1.27;;
78783;SDS011;68127;51.050;14.084;2023-05-17T00:08:07;3.65;;;1.80;;
78783;SDS011;68127;51.050;14.084;2023-05-17T00:10:32;3.28;;;1.33;;
78783;SDS011;68127;51.050;14.084;2023-05-17T00:12:57;4.82;;;1.40;;
78783;SDS011;68127;51.050;14.084;2023-05-17T00:15:23;6.10;;;1.75;;
78783;SDS011;68127;51.050;14.084;2023-05-17T00:17:48;3.25;;;1.80;;
78783;SDS011;68127;51.050;14.084;2023-05-17T00:20:13;7.38;;;1.63;;
78783;SDS011;68127;51.050;14.084;2023-05-17T00:22:38;4.85;;;1.33;;
78783;SDS011;68127;51.050;14.084;2023-05-17T00:25:04;4.03;;;1.42;;
78783;SDS011;68127;51.050;14.084;2023-05-17T00:27:30;5.22;;;1.83;;
78783;SDS011;68127;51.050;14.084;2023-05-17T00:29:55;3.90;;;1.55;;
78783;SDS011;68127;51.050;14.084;2023-05-17T00:32:21;6.15;;;1.70;;
78783;SDS011;68127;51.050;14.084;2023-05-17T00:34:46;4.38;;;1.40;;
78783;SDS011;68127;51.050;14.084;2023-05-17T00:37:11;6.05;;;1.90;;
78783;SDS011;68127;51.050;14.084;2023-05-17T00:39:37;3.42;;;1.50;;
78783;SDS011;68127;51.050;14.084;2023-05-17T00:42:02;3.40;;;1.50;;
78783;SDS011;68127;51.050;14.084;2023-05-17T00:44:28;8.70;;;1.85;;
78783;SDS011;68127;51.050;14.084;2023-05-17T00:46:53;5.05;;;1.60;;
78783;SDS011;68127;51.050;14.084;2023-05-17T00:49:18;4.38;;;1.52;;
78783;SDS011;68127;51.050;14.084;2023-05-17T00:51:44;4.22;;;1.90;;
78783;SDS011;68127;51.050;14.084;2023-05-17T00:54:10;7.10;;;2.10;;
78783;SDS011;68127;51.050;14.084;2023-05-17T00:56:35;5.07;;;2.00;;
78783;SDS011;68127;51.050;14.084;2023-05-17T00:59:01;8.07;;;2.10;;
78783;SDS011;68127;51.050;14.084;2023-05-17T01:01:28;4.47;;;1.83;;
78783;SDS011;68127;51.050;14.084;2023-05-17T01:03:54;8.45;;;1.90;;
78783;SDS011;68127;51.050;14.084;2023-05-17T01:06:19;6.20;;;1.83;;
78783;SDS011;68127;51.050;14.084;2023-05-17T01:08:44;5.70;;;1.80;;
78783;SDS011;68127;51.050;14.084;2023-05-17T01:11:17;3.70;;;1.80;;
78783;SDS011;68127;51.050;14.084;2023-05-17T01:13:54;4.28;;;1.75;;
78783;SDS011;68127;51.050;14.084;2023-05-17T01:16:27;5.57;;;1.83;;
78783;SDS011;68127;51.050;14.084;2023-05-17T01:18:57;4.88;;;1.70;;
78783;SDS011;68127;51.050;14.084;2023-05-17T01:24:30;6.68;;;1.73;;
78783;SDS011;68127;51.050;14.084;2023-05-17T01:26:58;4.18;;;1.83;;
78783;SDS011;68127;51.050;14.084;2023-05-17T01:29:25;5.50;;;1.95;;
78783;SDS011;68127;51.050;14.084;2023-05-17T01:31:53;8.25;;;1.98;;
78783;SDS011;68127;51.050;14.084;2023-05-17T01:34:23;7.13;;;2.05;;
78783;SDS011;68127;51.050;14.084;2023-05-17T01:36:49;7.80;;;2.00;;
78783;SDS011;68127;51.050;14.084;2023-05-17T01:39:14;4.30;;;1.90;;
78783;SDS011;68127;51.050;14.084;2023-05-17T01:41:40;4.68;;;1.90;;
78783;SDS011;68127;51.050;14.084;2023-05-17T01:44:12;4.53;;;2.05;;
78783;SDS011;68127;51.050;14.084;2023-05-17T01:46:43;4.25;;;2.20;;
78783;SDS011;68127;51.050;14.084;2023-05-17T01:49:17;5.00;;;2.35;;
78783;SDS011;68127;51.050;14.084;2023-05-17T01:54:27;5.72;;;2.38;;
78783;SDS011;68127;51.050;14.084;2023-05-17T01:56:56;8.32;;;2.75;;
78783;SDS011;68127;51.050;14.084;2023-05-17T01:59:22;7.18;;;2.90;;
78783;SDS011;68127;51.050;14.084;2023-05-17T02:01:58;8.40;;;3.30;;
78783;SDS011;68127;51.050;14.084;2023-05-17T02:04:31;8.27;;;3.63;;
78783;SDS011;68127;51.050;14.084;2023-05-17T02:06:56;8.70;;;2.92;;
78783;SDS011;68127;51.050;14.084;2023-05-17T02:09:22;10.23;;;2.65;;
78783;SDS011;68127;51.050;14.084;2023-05-17T02:11:47;6.38;;;2.67;;
78783;SDS011;68127;51.050;14.084;2023-05-17T02:14:12;8.02;;;2.25;;
78783;SDS011;68127;51.050;14.084;2023-05-17T02:16:37;9.40;;;3.60;;
78783;SDS011;68127;51.050;14.084;2023-05-17T02:19:03;10.02;;;3.75;;
78783;SDS011;68127;51.050;14.084;2023-05-17T02:21:28;4.88;;;2.15;;
78783;SDS011;68127;51.050;14.084;2023-05-17T02:23:53;7.53;;;2.38;;
78783;SDS011;68127;51.050;14.084;2023-05-17T02:26:18;6.55;;;2.25;;
78783;SDS011;68127;51.050;14.084;2023-05-17T02:28:44;4.57;;;1.85;;
78783;SDS011;68127;51.050;14.084;2023-05-17T02:31:09;12.10;;;2.35;;
78783;SDS011;68127;51.050;14.084;2023-05-17T02:33:34;4.72;;;1.92;;
78783;SDS011;68127;51.050;14.084;2023-05-17T02:35:59;8.05;;;2.80;;
78783;SDS011;68127;51.050;14.084;2023-05-17T02:38:25;7.25;;;1.85;;
78783;SDS011;68127;51.050;14.084;2023-05-17T02:40:50;4.95;;;2.10;;
78783;SDS011;68127;51.050;14.084;2023-05-17T02:43:15;4.70;;;2.30;;
78783;SDS011;68127;51.050;14.084;2023-05-17T02:45:42;4.70;;;2.03;;
78783;SDS011;68127;51.050;14.084;2023-05-17T02:48:07;4.40;;;2.17;;
78783;SDS011;68127;51.050;14.084;2023-05-17T02:50:33;8.77;;;2.45;;
78783;SDS011;68127;51.050;14.084;2023-05-17T02:52:58;7.75;;;2.33;;
78783;SDS011;68127;51.050;14.084;2023-05-17T02:55:23;7.72;;;2.20;;
78783;SDS011;68127;51.050;14.084;2023-05-17T02:57:48;2.95;;;1.70;;
78783;SDS011;68127;51.050;14.084;2023-05-17T03:00:14;7.80;;;2.20;;
78783;SDS011;68127;51.050;14.084;2023-05-17T03:02:40;6.43;;;2.10;;
78783;SDS011;68127;51.050;14.084;2023-05-17T03:05:06;6.95;;;2.53;;
78783;SDS011;68127;51.050;14.084;2023-05-17T03:07:32;6.80;;;2.10;;
78783;SDS011;68127;51.050;14.084;2023-05-17T03:09:57;7.00;;;2.53;;
78783;SDS011;68127;51.050;14.084;2023-05-17T03:12:22;7.75;;;2.38;;
78783;SDS011;68127;51.050;14.084;2023-05-17T03:14:48;5.00;;;2.30;;
78783;SDS011;68127;51.050;14.084;2023-05-17T03:17:13;6.47;;;2.30;;
78783;SDS011;68127;51.050;14.084;2023-05-17T03:19:38;4.03;;;1.88;;
78783;SDS011;68127;51.050;14.084;2023-05-17T03:22:03;9.02;;;2.40;;
78783;SDS011;68127;51.050;14.084;2023-05-17T03:24:29;5.30;;;2.47;;
78783;SDS011;68127;51.050;14.084;2023-05-17T03:26:54;7.20;;;2.13;;
78783;SDS011;68127;51.050;14.084;2023-05-17T03:29:19;4.78;;;2.15;;
78783;SDS011;68127;51.050;14.084;2023-05-17T03:31:45;5.07;;;1.90;;
78783;SDS011;68127;51.050;14.084;2023-05-17T03:34:10;8.60;;;2.17;;
78783;SDS011;68127;51.050;14.084;2023-05-17T03:36:36;6.93;;;1.98;;
78783;SDS011;68127;51.050;14.084;2023-05-17T03:39:03;8.82;;;2.33;;
78783;SDS011;68127;51.050;14.084;2023-05-17T03:41:28;5.50;;;2.13;;
78783;SDS011;68127;51.050;14.084;2023-05-17T03:43:53;7.03;;;2.47;;
78783;SDS011;68127;51.050;14.084;2023-05-17T03:46:18;6.38;;;2.17;;
78783;SDS011;68127;51.050;14.084;2023-05-17T03:48:44;6.93;;;2.42;;
78783;SDS011;68127;51.050;14.084;2023-05-17T03:51:09;7.45;;;1.98;;
78783;SDS011;68127;51.050;14.084;2023-05-17T03:53:34;9.52;;;2.88;;
78783;SDS011;68127;51.050;14.084;2023-05-17T03:56:05;5.85;;;2.45;;
78783;SDS011;68127;51.050;14.084;2023-05-17T03:58:30;6.82;;;2.30;;
78783;SDS011;68127;51.050;14.084;2023-05-17T04:00:55;9.25;;;2.53;;
78783;SDS011;68127;51.050;14.084;2023-05-17T04:03:20;8.43;;;2.20;;
78783;SDS011;68127;51.050;14.084;2023-05-17T04:05:46;5.88;;;2.40;;
78783;SDS011;68127;51.050;14.084;2023-05-17T04:08:11;8.65;;;2.28;;
78783;SDS011;68127;51.050;14.084;2023-05-17T04:10:36;5.75;;;2.40;;
78783;SDS011;68127;51.050;14.084;2023-05-17T04:13:05;5.32;;;2.10;;
78783;SDS011;68127;51.050;14.084;2023-05-17T04:15:31;7.50;;;2.35;;
78783;SDS011;68127;51.050;14.084;2023-05-17T04:17:56;9.02;;;2.45;;
78783;SDS011;68127;51.050;14.084;2023-05-17T04:20:21;4.45;;;2.17;;
78783;SDS011;68127;51.050;14.084;2023-05-17T04:22:46;5.95;;;2.28;;
78783;SDS011;68127;51.050;14.084;2023-05-17T04:25:12;13.15;;;2.25;;
78783;SDS011;68127;51.050;14.084;2023-05-17T04:27:37;8.13;;;2.28;;
78783;SDS011;68127;51.050;14.084;2023-05-17T04:30:02;7.05;;;2.20;;
78783;SDS011;68127;51.050;14.084;2023-05-17T04:32:28;6.28;;;2.30;;
78783;SDS011;68127;51.050;14.084;2023-05-17T04:34:53;7.28;;;2.60;;
78783;SDS011;68127;51.050;14.084;2023-05-17T04:37:20;5.75;;;2.30;;
78783;SDS011;68127;51.050;14.084;2023-05-17T04:39:45;7.68;;;2.20;;
78783;SDS011;68127;51.050;14.084;2023-05-17T04:42:10;13.00;;;2.42;;
78783;SDS011;68127;51.050;14.084;2023-05-17T04:44:36;6.57;;;2.75;;
78783;SDS011;68127;51.050;14.084;2023-05-17T04:47:01;8.43;;;2.50;;
78783;SDS011;68127;51.050;14.084;2023-05-17T04:49:27;10.93;;;2.45;;
78783;SDS011;68127;51.050;14.084;2023-05-17T04:51:53;6.47;;;2.35;;
78783;SDS011;68127;51.050;14.084;2023-05-17T04:54:18;9.18;;;2.58;;
78783;SDS011;68127;51.050;14.084;2023-05-17T04:56:43;7.90;;;2.85;;
78783;SDS011;68127;51.050;14.084;2023-05-17T04:59:08;4.13;;;2.25;;
78783;SDS011;68127;51.050;14.084;2023-05-17T05:01:34;6.53;;;2.45;;
78783;SDS011;68127;51.050;14.084;2023-05-17T05:03:59;6.93;;;2.83;;
78783;SDS011;68127;51.050;14.084;2023-05-17T05:06:24;8.27;;;2.42;;
78783;SDS011;68127;51.050;14.084;2023-05-17T05:08:50;5.90;;;2.10;;
78783;SDS011;68127;51.050;14.084;2023-05-17T05:11:15;8.80;;;3.15;;
78783;SDS011;68127;51.050;14.084;2023-05-17T05:13:40;8.10;;;2.40;;
78783;SDS011;68127;51.050;14.084;2023-05-17T05:16:06;8.27;;;2.63;;
78783;SDS011;68127;51.050;14.084;2023-05-17T05:18:32;14.43;;;2.97;;
78783;SDS011;68127;51.050;14.084;2023-05-17T05:20:57;7.90;;;2.78;;
78783;SDS011;68127;51.050;14.084;2023-05-17T05:23:23;9.15;;;3.03;;
78783;SDS011;68127;51.050;14.084;2023-05-17T05:25:48;8.15;;;2.60;;
78783;SDS011;68127;51.050;14.084;2023-05-17T05:28:13;10.65;;;2.63;;
78783;SDS011;68127;51.050;14.084;2023-05-17T05:30:39;5.65;;;2.75;;
78783;SDS011;68127;51.050;14.084;2023-05-17T05:33:04;11.02;;;2.92;;
78783;SDS011;68127;51.050;14.084;2023-05-17T05:35:29;10.32;;;4.18;;
78783;SDS011;68127;51.050;14.084;2023-05-17T05:37:55;7.13;;;3.00;;
78783;SDS011;68127;51.050;14.084;2023-05-17T05:40:21;8.45;;;3.75;;
78783;SDS011;68127;51.050;14.084;2023-05-17T05:42:46;8.38;;;3.08;;
78783;SDS011;68127;51.050;14.084;2023-05-17T05:45:11;8.95;;;3.00;;
78783;SDS011;68127;51.050;14.084;2023-05-17T05:47:37;6.20;;;2.45;;
78783;SDS011;68127;51.050;14.084;2023-05-17T05:50:03;8.32;;;3.10;;
78783;SDS011;68127;51.050;14.084;2023-05-17T05:52:29;10.98;;;3.00;;
78783;SDS011;68127;51.050;14.084;2023-05-17T05:54:54;9.00;;;3.00;;
78783;SDS011;68127;51.050;14.084;2023-05-17T05:57:19;7.95;;;3.45;;
78783;SDS011;68127;51.050;14.084;2023-05-17T05:59:45;10.70;;;3.63;;
78783;SDS011;68127;51.050;14.084;2023-05-17T06:02:10;10.48;;;3.67;;
78783;SDS011;68127;51.050;14.084;2023-05-17T06:04:36;11.15;;;3.63;;
78783;SDS011;68127;51.050;14.084;2023-05-17T06:07:02;9.50;;;3.47;;
78783;SDS011;68127;51.050;14.084;2023-05-17T06:09:27;15.65;;;4.13;;
78783;SDS011;68127;51.050;14.084;2023-05-17T06:11:53;11.57;;;3.80;;
78783;SDS011;68127;51.050;14.084;2023-05-17T06:14:18;14.35;;;4.13;;
78783;SDS011;68127;51.050;14.084;2023-05-17T06:16:43;7.05;;;3.65;;
78783;SDS011;68127;51.050;14.084;2023-05-17T06:19:08;14.15;;;3.90;;
78783;SDS011;68127;51.050;14.084;2023-05-17T06:21:34;12.98;;;4.65;;
78783;SDS011;68127;51.050;14.084;2023-05-17T06:23:59;11.05;;;3.60;;
78783;SDS011;68127;51.050;14.084;2023-05-17T06:26:24;14.80;;;3.90;;
78783;SDS011;68127;51.050;14.084;2023-05-17T06:28:50;14.50;;;4.35;;
78783;SDS011;68127;51.050;14.084;2023-05-17T06:31:15;8.82;;;4.07;;
78783;SDS011;68127;51.050;14.084;2023-05-17T06:33:40;14.57;;;3.55;;
78783;SDS011;68127;51.050;14.084;2023-05-17T06:36:06;11.10;;;3.95;;
78783;SDS011;68127;51.050;14.084;2023-05-17T06:38:31;15.23;;;3.65;;
78783;SDS011;68127;51.050;14.084;2023-05-17T06:40:56;8.20;;;3.72;;
78783;SDS011;68127;51.050;14.084;2023-05-17T06:43:22;13.82;;;3.97;;
78783;SDS011;68127;51.050;14.084;2023-05-17T06:45:48;10.27;;;4.03;;
78783;SDS011;68127;51.050;14.084;2023-05-17T06:48:13;12.00;;;3.75;;
78783;SDS011;68127;51.050;14.084;2023-05-17T06:50:39;9.93;;;3.50;;
78783;SDS011;68127;51.050;14.084;2023-05-17T06:53:04;10.10;;;3.50;;
78783;SDS011;68127;51.050;14.084;2023-05-17T06:55:29;9.43;;;3.92;;
78783;SDS011;68127;51.050;14.084;2023-05-17T06:57:55;11.25;;;4.55;;
78783;SDS011;68127;51.050;14.084;2023-05-17T07:00:20;11.70;;;3.50;;
78783;SDS011;68127;51.050;14.084;2023-05-17T07:02:45;10.77;;;4.88;;
78783;SDS011;68127;51.050;14.084;2023-05-17T07:05:11;10.60;;;4.57;;
78783;SDS011;68127;51.050;14.084;2023-05-17T07:07:36;16.63;;;4.93;;
78783;SDS011;68127;51.050;14.084;2023-05-17T07:10:02;13.68;;;4.18;;
78783;SDS011;68127;51.050;14.084;2023-05-17T07:12:31;12.00;;;4.07;;
78783;SDS011;68127;51.050;14.084;2023-05-17T07:14:59;12.43;;;4.10;;
78783;SDS011;68127;51.050;14.084;2023-05-17T07:17:25;12.05;;;4.35;;
78783;SDS011;68127;51.050;14.084;2023-05-17T07:19:50;9.18;;;3.72;;
78783;SDS011;68127;51.050;14.084;2023-05-17T07:22:16;11.00;;;3.70;;
78783;SDS011;68127;51.050;14.084;2023-05-17T07:24:42;15.13;;;4.63;;
78783;SDS011;68127;51.050;14.084;2023-05-17T07:27:08;15.18;;;4.43;;
78783;SDS011;68127;51.050;14.084;2023-05-17T07:29:36;13.30;;;4.30;;
78783;SDS011;68127;51.050;14.084;2023-05-17T07:32:06;9.93;;;4.43;;
78783;SDS011;68127;51.050;14.084;2023-05-17T07:34:31;9.80;;;4.55;;
78783;SDS011;68127;51.050;14.084;2023-05-17T07:36:59;14.05;;;4.45;;
78783;SDS011;68127;51.050;14.084;2023-05-17T07:39:28;8.98;;;3.83;;
78783;SDS011;68127;51.050;14.084;2023-05-17T07:41:56;13.40;;;4.47;;
78783;SDS011;68127;51.050;14.084;2023-05-17T07:44:27;12.27;;;4.35;;
78783;SDS011;68127;51.050;14.084;2023-05-17T07:46:52;14.65;;;4.30;;
78783;SDS011;68127;51.050;14.084;2023-05-17T07:49:18;9.93;;;3.70;;
78783;SDS011;68127;51.050;14.084;2023-05-17T07:51:43;13.40;;;4.20;;
78783;SDS011;68127;51.050;14.084;2023-05-17T07:54:08;8.98;;;3.80;;
78783;SDS011;68127;51.050;14.084;2023-05-17T07:56:34;13.60;;;4.05;;
78783;SDS011;68127;51.050;14.084;2023-05-17T07:58:59;12.05;;;4.35;;
78783;SDS011;68127;51.050;14.084;2023-05-17T08:01:24;14.88;;;4.60;;
78783;SDS011;68127;51.050;14.084;2023-05-17T08:03:50;7.53;;;3.90;;
78783;SDS011;68127;51.050;14.084;2023-05-17T08:06:15;10.90;;;4.00;;
78783;SDS011;68127;51.050;14.084;2023-05-17T08:08:41;9.88;;;3.92;;
78783;SDS011;68127;51.050;14.084;2023-05-17T08:11:07;10.70;;;4.03;;
78783;SDS011;68127;51.050;14.084;2023-05-17T08:13:33;10.20;;;3.95;;
78783;SDS011;68127;51.050;14.084;2023-05-17T08:15:58;12.40;;;4.45;;
78783;SDS011;68127;51.050;14.084;2023-05-17T08:18:27;10.48;;;3.95;;
78783;SDS011;68127;51.050;14.084;2023-05-17T08:20:55;9.55;;;3.75;;
78783;SDS011;68127;51.050;14.084;2023-05-17T08:23:20;10.70;;;4.10;;
78783;SDS011;68127;51.050;14.084;2023-05-17T08:25:46;12.93;;;3.92;;
78783;SDS011;68127;51.050;14.084;2023-05-17T08:28:11;8.20;;;3.95;;
78783;SDS011;68127;51.050;14.084;2023-05-17T08:30:36;14.90;;;4.10;;
78783;SDS011;68127;51.050;14.084;2023-05-17T08:33:02;10.23;;;3.67;;
78783;SDS011;68127;51.050;14.084;2023-05-17T08:35:27;10.73;;;3.78;;
78783;SDS011;68127;51.050;14.084;2023-05-17T08:37:52;9.77;;;3.90;;
78783;SDS011;68127;51.050;14.084;2023-05-17T08:40:19;11.27;;;3.90;;
78783;SDS011;68127;51.050;14.084;2023-05-17T08:42:45;12.05;;;3.78;;
78783;SDS011;68127;51.050;14.084;2023-05-17T08:45:10;11.13;;;3.85;;
78783;SDS011;68127;51.050;14.084;2023-05-17T08:47:36;12.02;;;3.83;;
78783;SDS011;68127;51.050;14.084;2023-05-17T08:50:03;10.32;;;3.47;;
78783;SDS011;68127;51.050;14.084;2023-05-17T08:52:30;7.68;;;3.63;;
78783;SDS011;68127;51.050;14.084;2023-05-17T08:54:58;11.18;;;3.55;;
78783;SDS011;68127;51.050;14.084;2023-05-17T08:57:29;10.48;;;3.58;;
78783;SDS011;68127;51.050;14.084;2023-05-17T08:59:55;7.82;;;3.60;;
78783;SDS011;68127;51.050;14.084;2023-05-17T09:02:22;9.70;;;3.50;;
78783;SDS011;68127;51.050;14.084;2023-05-17T09:04:48;10.13;;;3.03;;
78783;SDS011;68127;51.050;14.084;2023-05-17T09:07:19;9.45;;;2.85;;
78783;SDS011;68127;51.050;14.084;2023-05-17T09:09:44;9.93;;;3.10;;
78783;SDS011;68127;51.050;14.084;2023-05-17T09:12:10;7.93;;;3.03;;
78783;SDS011;68127;51.050;14.084;2023-05-17T09:14:35;7.32;;;2.83;;
78783;SDS011;68127;51.050;14.084;2023-05-17T09:17:00;5.53;;;2.63;;
78783;SDS011;68127;51.050;14.084;2023-05-17T09:19:26;7.03;;;2.97;;
78783;SDS011;68127;51.050;14.084;2023-05-17T09:21:52;8.85;;;2.75;;
78783;SDS011;68127;51.050;14.084;2023-05-17T09:24:28;7.68;;;2.50;;
78783;SDS011;68127;51.050;14.084;2023-05-17T09:26:59;8.65;;;2.88;;
78783;SDS011;68127;51.050;14.084;2023-05-17T09:29:25;9.35;;;3.03;;
78783;SDS011;68127;51.050;14.084;2023-05-17T09:31:54;10.77;;;3.13;;
78783;SDS011;68127;51.050;14.084;2023-05-17T09:34:20;8.05;;;2.83;;
78783;SDS011;68127;51.050;14.084;2023-05-17T09:36:48;10.40;;;2.83;;
78783;SDS011;68127;51.050;14.084;2023-05-17T09:39:15;7.97;;;2.58;;
78783;SDS011;68127;51.050;14.084;2023-05-17T09:41:42;9.48;;;3.25;;
78783;SDS011;68127;51.050;14.084;2023-05-17T09:44:11;12.18;;;4.45;;
78783;SDS011;68127;51.050;14.084;2023-05-17T09:46:40;8.43;;;2.80;;
78783;SDS011;68127;51.050;14.084;2023-05-17T09:49:06;5.95;;;3.00;;
78783;SDS011;68127;51.050;14.084;2023-05-17T09:51:33;11.20;;;2.75;;
78783;SDS011;68127;51.050;14.084;2023-05-17T09:54:00;9.70;;;2.95;;
78783;SDS011;68127;51.050;14.084;2023-05-17T09:56:28;9.10;;;2.85;;
78783;SDS011;68127;51.050;14.084;2023-05-17T09:58:54;8.32;;;3.10;;
78783;SDS011;68127;51.050;14.084;2023-05-17T10:01:20;12.50;;;2.75;;
78783;SDS011;68127;51.050;14.084;2023-05-17T10:03:46;7.47;;;2.90;;
78783;SDS011;68127;51.050;14.084;2023-05-17T10:06:11;9.75;;;3.40;;
78783;SDS011;68127;51.050;14.084;2023-05-17T10:08:36;9.70;;;3.30;;
78783;SDS011;68127;51.050;14.084;2023-05-17T10:11:06;10.10;;;3.53;;
78783;SDS011;68127;51.050;14.084;2023-05-17T10:13:33;9.63;;;3.70;;
78783;SDS011;68127;51.050;14.084;2023-05-17T10:16:09;11.75;;;3.03;;
78783;SDS011;68127;51.050;14.084;2023-05-17T10:18:36;9.63;;;3.25;;
78783;SDS011;68127;51.050;14.084;2023-05-17T10:21:02;7.78;;;2.90;;
78783;SDS011;68127;51.050;14.084;2023-05-17T10:23:27;9.27;;;2.70;;
78783;SDS011;68127;51.050;14.084;2023-05-17T10:25:53;9.23;;;3.22;;
78783;SDS011;68127;51.050;14.084;2023-05-17T10:28:19;8.85;;;3.13;;
78783;SDS011;68127;51.050;14.084;2023-05-17T10:30:44;8.35;;;2.75;;
78783;SDS011;68127;51.050;14.084;2023-05-17T10:33:11;7.00;;;2.60;;
78783;SDS011;68127;51.050;14.084;2023-05-17T10:35:37;7.78;;;2.53;;
78783;SDS011;68127;51.050;14.084;2023-05-17T10:38:03;8.60;;;2.78;;
78783;SDS011;68127;51.050;14.084;2023-05-17T10:40:28;7.22;;;2.53;;
78783;SDS011;68127;51.050;14.084;2023-05-17T10:42:54;8.80;;;2.97;;
78783;SDS011;68127;51.050;14.084;2023-05-17T10:45:20;7.82;;;2.55;;
78783;SDS011;68127;51.050;14.084;2023-05-17T10:47:49;9.00;;;2.70;;
78783;SDS011;68127;51.050;14.084;2023-05-17T10:50:23;8.68;;;2.90;;
78783;SDS011;68127;51.050;14.084;2023-05-17T10:52:50;9.30;;;3.30;;
78783;SDS011;68127;51.050;14.084;2023-05-17T10:55:17;7.18;;;2.50;;
78783;SDS011;68127;51.050;14.084;2023-05-17T10:57:43;8.45;;;2.63;;
78783;SDS011;68127;51.050;14.084;2023-05-17T11:00:09;9.93;;;2.97;;
78783;SDS011;68127;51.050;14.084;2023-05-17T11:02:43;10.75;;;2.80;;
78783;SDS011;68127;51.050;14.084;2023-05-17T11:05:21;12.32;;;2.90;;
78783;SDS011;68127;51.050;14.084;2023-05-17T11:07:48;17.67;;;4.85;;
78783;SDS011;68127;51.050;14.084;2023-05-17T11:10:13;13.10;;;3.00;;
78783;SDS011;68127;51.050;14.084;2023-05-17T11:12:40;8.38;;;3.10;;
78783;SDS011;68127;51.050;14.084;2023-05-17T11:15:11;12.63;;;2.83;;
78783;SDS011;68127;51.050;14.084;2023-05-17T11:22:59;11.85;;;3.55;;
78783;SDS011;68127;51.050;14.084;2023-05-17T11:25:42;11.95;;;2.88;;
78783;SDS011;68127;51.050;14.084;2023-05-17T11:28:11;8.77;;;3.58;;
78783;SDS011;68127;51.050;14.084;2023-05-17T11:30:41;9.98;;;3.35;;
78783;SDS011;68127;51.050;14.084;2023-05-17T11:33:15;11.43;;;3.05;;
78783;SDS011;68127;51.050;14.084;2023-05-17T11:35:41;12.15;;;3.08;;
78783;SDS011;68127;51.050;14.084;2023-05-17T11:40:42;10.05;;;2.95;;
78783;SDS011;68127;51.050;14.084;2023-05-17T11:45:40;7.50;;;2.88;;
78783;SDS011;68127;51.050;14.084;2023-05-17T11:48:12;11.52;;;3.25;;
78783;SDS011;68127;51.050;14.084;2023-05-17T11:50:38;8.10;;;3.10;;
78783;SDS011;68127;51.050;14.084;2023-05-17T11:53:04;9.55;;;3.25;;
78783;SDS011;68127;51.050;14.084;2023-05-17T11:55:31;10.23;;;3.42;;
78783;SDS011;68127;51.050;14.084;2023-05-17T11:57:58;13.45;;;3.60;;
78783;SDS011;68127;51.050;14.084;2023-05-17T12:00:24;11.43;;;2.70;;
78783;SDS011;68127;51.050;14.084;2023-05-17T12:02:52;7.45;;;2.70;;
78783;SDS011;68127;51.050;14.084;2023-05-17T12:05:20;7.07;;;2.65;;
78783;SDS011;68127;51.050;14.084;2023-05-17T12:07:46;7.47;;;2.75;;
78783;SDS011;68127;51.050;14.084;2023-05-17T12:10:12;7.35;;;2.60;;
78783;SDS011;68127;51.050;14.084;2023-05-17T12:12:37;9.57;;;2.60;;
78783;SDS011;68127;51.050;14.084;2023-05-17T12:15:05;8.95;;;2.92;;
78783;SDS011;68127;51.050;14.084;2023-05-17T12:17:34;6.60;;;2.47;;
78783;SDS011;68127;51.050;14.084;2023-05-17T12:20:07;10.38;;;2.58;;
78783;SDS011;68127;51.050;14.084;2023-05-17T12:22:33;11.20;;;2.90;;
78783;SDS011;68127;51.050;14.084;2023-05-17T12:24:58;7.95;;;2.80;;
78783;SDS011;68127;51.050;14.084;2023-05-17T12:27:24;11.52;;;3.10;;
78783;SDS011;68127;51.050;14.084;2023-05-17T12:29:50;8.70;;;2.38;;
78783;SDS011;68127;51.050;14.084;2023-05-17T12:32:16;9.65;;;2.65;;
78783;SDS011;68127;51.050;14.084;2023-05-17T12:34:41;12.45;;;3.10;;
78783;SDS011;68127;51.050;14.084;2023-05-17T12:37:06;6.32;;;2.50;;
78783;SDS011;68127;51.050;14.084;2023-05-17T12:39:34;6.45;;;2.22;;
78783;SDS011;68127;51.050;14.084;2023-05-17T12:41:59;7.57;;;2.40;;
78783;SDS011;68127;51.050;14.084;2023-05-17T12:44:25;7.28;;;2.33;;
78783;SDS011;68127;51.050;14.084;2023-05-17T12:46:50;8.75;;;2.58;;
78783;SDS011;68127;51.050;14.084;2023-05-17T12:49:18;7.85;;;2.70;;
78783;SDS011;68127;51.050;14.084;2023-05-17T12:51:45;11.60;;;2.53;;
78783;SDS011;68127;51.050;14.084;2023-05-17T12:54:11;8.20;;;2.45;;
78783;SDS011;68127;51.050;14.084;2023-05-17T12:56:50;7.72;;;2.63;;
78783;SDS011;68127;51.050;14.084;2023-05-17T12:59:15;7.22;;;2.45;;
78783;SDS011;68127;51.050;14.084;2023-05-17T13:01:43;8.40;;;2.15;;
78783;SDS011;68127;51.050;14.084;2023-05-17T13:04:10;7.10;;;2.00;;
78783;SDS011;68127;51.050;14.084;2023-05-17T13:06:52;8.02;;;2.30;;
78783;SDS011;68127;51.050;14.084;2023-05-17T13:09:21;6.00;;;2.28;;
78783;SDS011;68127;51.050;14.084;2023-05-17T13:11:56;6.38;;;2.42;;
78783;SDS011;68127;51.050;14.084;2023-05-17T13:14:41;5.57;;;2.30;;
78783;SDS011;68127;51.050;14.084;2023-05-17T13:17:17;9.43;;;2.38;;
78783;SDS011;68127;51.050;14.084;2023-05-17T13:19:44;7.45;;;2.60;;
78783;SDS011;68127;51.050;14.084;2023-05-17T13:22:10;6.35;;;2.33;;
78783;SDS011;68127;51.050;14.084;2023-05-17T13:24:36;8.30;;;2.22;;
78783;SDS011;68127;51.050;14.084;2023-05-17T13:27:02;8.40;;;2.70;;
78783;SDS011;68127;51.050;14.084;2023-05-17T13:29:28;9.50;;;2.90;;
78783;SDS011;68127;51.050;14.084;2023-05-17T13:31:53;7.30;;;2.38;;
78783;SDS011;68127;51.050;14.084;2023-05-17T13:34:19;8.00;;;2.33;;
78783;SDS011;68127;51.050;14.084;2023-05-17T13:36:47;9.63;;;2.40;;
78783;SDS011;68127;51.050;14.084;2023-05-17T13:39:13;7.97;;;2.40;;
78783;SDS011;68127;51.050;14.084;2023-05-17T13:41:38;12.55;;;4.07;;
78783;SDS011;68127;51.050;14.084;2023-05-17T13:44:04;21.13;;;11.18;;
78783;SDS011;68127;51.050;14.084;2023-05-17T13:46:30;11.23;;;4.85;;
78783;SDS011;68127;51.050;14.084;2023-05-17T13:48:56;11.05;;;4.07;;
78783;SDS011;68127;51.050;14.084;2023-05-17T13:51:21;7.32;;;3.83;;
78783;SDS011;68127;51.050;14.084;2023-05-17T13:53:47;9.02;;;4.78;;
78783;SDS011;68127;51.050;14.084;2023-05-17T13:56:12;7.70;;;2.70;;
78783;SDS011;68127;51.050;14.084;2023-05-17T13:58:37;7.93;;;2.00;;
78783;SDS011;68127;51.050;14.084;2023-05-17T14:01:02;6.38;;;2.30;;
78783;SDS011;68127;51.050;14.084;2023-05-17T14:03:28;4.97;;;1.70;;
78783;SDS011;68127;51.050;14.084;2023-05-17T14:05:53;6.85;;;1.90;;
78783;SDS011;68127;51.050;14.084;2023-05-17T14:08:19;9.18;;;2.40;;
78783;SDS011;68127;51.050;14.084;2023-05-17T14:10:44;7.95;;;1.90;;
78783;SDS011;68127;51.050;14.084;2023-05-17T14:13:10;4.70;;;1.85;;
78783;SDS011;68127;51.050;14.084;2023-05-17T14:15:36;10.75;;;2.55;;
78783;SDS011;68127;51.050;14.084;2023-05-17T14:18:03;8.55;;;2.35;;
78783;SDS011;68127;51.050;14.084;2023-05-17T14:20:29;5.65;;;1.83;;
78783;SDS011;68127;51.050;14.084;2023-05-17T14:22:54;7.03;;;2.08;;
78783;SDS011;68127;51.050;14.084;2023-05-17T14:25:20;7.78;;;2.40;;
78783;SDS011;68127;51.050;14.084;2023-05-17T14:27:45;6.55;;;2.10;;
78783;SDS011;68127;51.050;14.084;2023-05-17T14:30:11;7.90;;;1.98;;
78783;SDS011;68127;51.050;14.084;2023-05-17T14:32:37;7.38;;;2.10;;
78783;SDS011;68127;51.050;14.084;2023-05-17T14:35:03;6.18;;;2.10;;
78783;SDS011;68127;51.050;14.084;2023-05-17T14:37:31;8.40;;;2.45;;
78783;SDS011;68127;51.050;14.084;2023-05-17T14:39:57;8.75;;;2.10;;
78783;SDS011;68127;51.050;14.084;2023-05-17T14:42:22;9.68;;;3.72;;